sensor_id;sensor_type;location;lat;lon;timestamp;P1;durP1;ratioP1;P2;durP2;ratioP2
45676;SDS011;31390;51.186;6.830;2023-04-30T00:00:33;1.35;;;0.80;;
45676;SDS011;31390;51.186;6.830;2023-04-30T00:02:59;0.98;;;0.82;;
45676;SDS011;31390;51.186;6.830;2023-04-30T00:05:26;0.77;;;0.57;;
45676;SDS011;31390;51.186;6.830;2023-04-30T00:07:53;0.90;;;0.90;;
45676;SDS011;31390;51.186;6.830;2023-04-30T00:10:19;1.15;;;0.93;;
45676;SDS011;31390;51.186;6.830;2023-04-30T00:12:46;0.75;;;0.57;;
45676;SDS011;31390;51.186;6.830;2023-04-30T00:15:12;1.20;;;0.93;;
45676;SDS011;31390;51.186;6.830;2023-04-30T00:17:39;0.85;;;0.60;;
45676;SDS011;31390;51.186;6.830;2023-04-30T00:20:06;0.93;;;0.60;;
45676;SDS011;31390;51.186;6.830;2023-04-30T00:22:32;1.20;;;0.73;;
45676;SDS011;31390;51.186;6.830;2023-04-30T00:24:59;1.13;;;0.75;;
45676;SDS011;31390;51.186;6.830;2023-04-30T00:27:25;0.93;;;0.70;;
45676;SDS011;31390;51.186;6.830;2023-04-30T00:29:52;1.40;;;0.73;;
45676;SDS011;31390;51.186;6.830;2023-04-30T00:32:20;0.70;;;0.70;;
45676;SDS011;31390;51.186;6.830;2023-04-30T00:34:47;0.50;;;0.50;;
45676;SDS011;31390;51.186;6.830;2023-04-30T00:37:14;1.17;;;1.00;;
45676;SDS011;31390;51.186;6.830;2023-04-30T00:39:40;1.40;;;0.80;;
45676;SDS011;31390;51.186;6.830;2023-04-30T00:42:07;0.60;;;0.60;;
45676;SDS011;31390;51.186;6.830;2023-04-30T00:44:33;0.40;;;0.38;;
45676;SDS011;31390;51.186;6.830;2023-04-30T00:47:00;0.77;;;0.65;;
45676;SDS011;31390;51.186;6.830;2023-04-30T00:49:26;1.30;;;0.67;;
45676;SDS011;31390;51.186;6.830;2023-04-30T00:51:53;0.60;;;0.50;;
45676;SDS011;31390;51.186;6.830;2023-04-30T00:54:20;0.50;;;0.50;;
45676;SDS011;31390;51.186;6.830;2023-04-30T00:56:46;0.90;;;0.60;;
45676;SDS011;31390;51.186;6.830;2023-04-30T00:59:13;1.00;;;0.77;;
45676;SDS011;31390;51.186;6.830;2023-04-30T01:01:40;0.60;;;0.55;;
45676;SDS011;31390;51.186;6.830;2023-04-30T01:04:07;0.50;;;0.50;;
45676;SDS011;31390;51.186;6.830;2023-04-30T01:06:33;0.73;;;0.43;;
45676;SDS011;31390;51.186;6.830;2023-04-30T01:09:00;0.60;;;0.60;;
45676;SDS011;31390;51.186;6.830;2023-04-30T01:11:35;0.50;;;0.40;;
45676;SDS011;31390;51.186;6.830;2023-04-30T01:14:06;1.23;;;0.70;;
45676;SDS011;31390;51.186;6.830;2023-04-30T01:16:40;0.70;;;0.45;;
45676;SDS011;31390;51.186;6.830;2023-04-30T01:19:10;0.60;;;0.60;;
45676;SDS011;31390;51.186;6.830;2023-04-30T01:21:41;0.60;;;0.55;;
45676;SDS011;31390;51.186;6.830;2023-04-30T01:29:23;0.40;;;0.40;;
45676;SDS011;31390;51.186;6.830;2023-04-30T01:31:52;0.57;;;0.57;;
45676;SDS011;31390;51.186;6.830;2023-04-30T01:34:18;0.63;;;0.50;;
45676;SDS011;31390;51.186;6.830;2023-04-30T01:36:51;0.40;;;0.40;;
45676;SDS011;31390;51.186;6.830;2023-04-30T01:41:49;0.70;;;0.70;;
45676;SDS011;31390;51.186;6.830;2023-04-30T01:47:02;0.80;;;0.73;;
45676;SDS011;31390;51.186;6.830;2023-04-30T01:52:01;0.60;;;0.60;;
45676;SDS011;31390;51.186;6.830;2023-04-30T01:57:00;0.75;;;0.70;;
45676;SDS011;31390;51.186;6.830;2023-04-30T01:59:37;0.77;;;0.70;;
45676;SDS011;31390;51.186;6.830;2023-04-30T02:02:04;0.63;;;0.60;;
45676;SDS011;31390;51.186;6.830;2023-04-30T02:04:31;1.23;;;0.80;;
45676;SDS011;31390;51.186;6.830;2023-04-30T02:06:58;0.70;;;0.70;;
45676;SDS011;31390;51.186;6.830;2023-04-30T02:09:24;0.40;;;0.40;;
45676;SDS011;31390;51.186;6.830;2023-04-30T02:11:51;1.00;;;0.73;;
45676;SDS011;31390;51.186;6.830;2023-04-30T02:14:17;1.05;;;0.77;;
45676;SDS011;31390;51.186;6.830;2023-04-30T02:16:44;1.03;;;0.70;;
45676;SDS011;31390;51.186;6.830;2023-04-30T02:19:10;1.30;;;0.77;;
45676;SDS011;31390;51.186;6.830;2023-04-30T02:21:37;1.53;;;0.40;;
45676;SDS011;31390;51.186;6.830;2023-04-30T02:24:04;0.60;;;0.60;;
45676;SDS011;31390;51.186;6.830;2023-04-30T02:26:31;0.70;;;0.50;;
45676;SDS011;31390;51.186;6.830;2023-04-30T02:28:58;0.87;;;0.83;;
45676;SDS011;31390;51.186;6.830;2023-04-30T02:31:24;1.13;;;0.70;;
45676;SDS011;31390;51.186;6.830;2023-04-30T02:33:51;0.77;;;0.70;;
45676;SDS011;31390;51.186;6.830;2023-04-30T02:36:17;0.77;;;0.53;;
45676;SDS011;31390;51.186;6.830;2023-04-30T02:38:44;1.53;;;0.80;;
45676;SDS011;31390;51.186;6.830;2023-04-30T02:41:10;0.23;;;0.23;;
45676;SDS011;31390;51.186;6.830;2023-04-30T02:43:37;0.60;;;0.50;;
45676;SDS011;31390;51.186;6.830;2023-04-30T02:46:04;0.57;;;0.53;;
45676;SDS011;31390;51.186;6.830;2023-04-30T02:48:31;0.83;;;0.70;;
45676;SDS011;31390;51.186;6.830;2023-04-30T02:50:58;0.70;;;0.50;;
45676;SDS011;31390;51.186;6.830;2023-04-30T02:53:24;0.67;;;0.67;;
45676;SDS011;31390;51.186;6.830;2023-04-30T02:55:51;0.60;;;0.60;;
45676;SDS011;31390;51.186;6.830;2023-04-30T02:58:17;0.93;;;0.60;;
45676;SDS011;31390;51.186;6.830;2023-04-30T03:00:44;0.47;;;0.47;;
45676;SDS011;31390;51.186;6.830;2023-04-30T03:03:11;0.40;;;0.40;;
45676;SDS011;31390;51.186;6.830;2023-04-30T03:05:37;0.90;;;0.70;;
45676;SDS011;31390;51.186;6.830;2023-04-30T03:08:04;0.83;;;0.70;;
45676;SDS011;31390;51.186;6.830;2023-04-30T03:10:30;0.40;;;0.40;;
45676;SDS011;31390;51.186;6.830;2023-04-30T03:12:57;0.63;;;0.57;;
45676;SDS011;31390;51.186;6.830;2023-04-30T03:15:23;0.70;;;0.50;;
45676;SDS011;31390;51.186;6.830;2023-04-30T03:17:50;0.60;;;0.60;;
45676;SDS011;31390;51.186;6.830;2023-04-30T03:20:17;0.70;;;0.67;;
45676;SDS011;31390;51.186;6.830;2023-04-30T03:22:43;0.70;;;0.50;;
45676;SDS011;31390;51.186;6.830;2023-04-30T03:25:10;0.53;;;0.50;;
45676;SDS011;31390;51.186;6.830;2023-04-30T03:27:36;0.80;;;0.60;;
45676;SDS011;31390;51.186;6.830;2023-04-30T03:30:03;0.60;;;0.60;;
45676;SDS011;31390;51.186;6.830;2023-04-30T03:32:30;1.07;;;0.80;;
45676;SDS011;31390;51.186;6.830;2023-04-30T03:34:56;0.50;;;0.50;;
45676;SDS011;31390;51.186;6.830;2023-04-30T03:37:25;0.60;;;0.60;;
45676;SDS011;31390;51.186;6.830;2023-04-30T03:39:51;0.80;;;0.70;;
45676;SDS011;31390;51.186;6.830;2023-04-30T03:42:18;0.80;;;0.50;;
45676;SDS011;31390;51.186;6.830;2023-04-30T03:44:45;0.77;;;0.70;;
45676;SDS011;31390;51.186;6.830;2023-04-30T03:47:11;0.47;;;0.47;;
45676;SDS011;31390;51.186;6.830;2023-04-30T03:49:38;1.13;;;0.70;;
45676;SDS011;31390;51.186;6.830;2023-04-30T03:52:05;0.67;;;0.50;;
45676;SDS011;31390;51.186;6.830;2023-04-30T03:54:32;0.67;;;0.50;;
45676;SDS011;31390;51.186;6.830;2023-04-30T03:57:01;0.67;;;0.67;;
45676;SDS011;31390;51.186;6.830;2023-04-30T03:59:32;0.50;;;0.50;;
45676;SDS011;31390;51.186;6.830;2023-04-30T04:01:59;1.03;;;0.67;;
45676;SDS011;31390;51.186;6.830;2023-04-30T04:04:27;0.60;;;0.60;;
45676;SDS011;31390;51.186;6.830;2023-04-30T04:06:54;0.67;;;0.40;;
45676;SDS011;31390;51.186;6.830;2023-04-30T04:09:20;0.70;;;0.63;;
45676;SDS011;31390;51.186;6.830;2023-04-30T04:11:47;0.90;;;0.60;;
45676;SDS011;31390;51.186;6.830;2023-04-30T04:14:14;0.77;;;0.70;;
45676;SDS011;31390;51.186;6.830;2023-04-30T04:16:42;1.00;;;0.90;;
45676;SDS011;31390;51.186;6.830;2023-04-30T04:19:08;0.70;;;0.70;;
45676;SDS011;31390;51.186;6.830;2023-04-30T04:21:35;0.70;;;0.60;;
45676;SDS011;31390;51.186;6.830;2023-04-30T04:24:07;0.70;;;0.57;;
45676;SDS011;31390;51.186;6.830;2023-04-30T04:26:34;0.90;;;0.80;;
45676;SDS011;31390;51.186;6.830;2023-04-30T04:29:01;0.70;;;0.60;;
45676;SDS011;31390;51.186;6.830;2023-04-30T04:31:30;1.13;;;0.80;;
45676;SDS011;31390;51.186;6.830;2023-04-30T04:34:02;1.10;;;0.70;;
45676;SDS011;31390;51.186;6.830;2023-04-30T04:36:30;1.00;;;0.77;;
45676;SDS011;31390;51.186;6.830;2023-04-30T04:38:57;0.70;;;0.47;;
45676;SDS011;31390;51.186;6.830;2023-04-30T04:41:28;1.60;;;1.07;;
45676;SDS011;31390;51.186;6.830;2023-04-30T04:43:55;0.80;;;0.60;;
45676;SDS011;31390;51.186;6.830;2023-04-30T04:46:23;1.03;;;0.77;;
45676;SDS011;31390;51.186;6.830;2023-04-30T04:48:50;0.50;;;0.50;;
45676;SDS011;31390;51.186;6.830;2023-04-30T04:51:17;0.90;;;0.60;;
45676;SDS011;31390;51.186;6.830;2023-04-30T04:53:43;0.80;;;0.70;;
45676;SDS011;31390;51.186;6.830;2023-04-30T04:56:10;0.87;;;0.80;;
45676;SDS011;31390;51.186;6.830;2023-04-30T04:58:36;0.60;;;0.60;;
45676;SDS011;31390;51.186;6.830;2023-04-30T05:01:03;1.00;;;0.63;;
45676;SDS011;31390;51.186;6.830;2023-04-30T05:03:31;0.90;;;0.70;;
45676;SDS011;31390;51.186;6.830;2023-04-30T05:05:58;0.53;;;0.50;;
45676;SDS011;31390;51.186;6.830;2023-04-30T05:08:24;1.17;;;0.80;;
45676;SDS011;31390;51.186;6.830;2023-04-30T05:10:51;1.07;;;0.70;;
45676;SDS011;31390;51.186;6.830;2023-04-30T05:13:17;0.73;;;0.57;;
45676;SDS011;31390;51.186;6.830;2023-04-30T05:15:44;0.70;;;0.70;;
45676;SDS011;31390;51.186;6.830;2023-04-30T05:18:10;0.80;;;0.60;;
45676;SDS011;31390;51.186;6.830;2023-04-30T05:20:37;1.60;;;0.80;;
45676;SDS011;31390;51.186;6.830;2023-04-30T05:23:03;1.07;;;0.70;;
45676;SDS011;31390;51.186;6.830;2023-04-30T05:25:30;0.70;;;0.60;;
45676;SDS011;31390;51.186;6.830;2023-04-30T05:27:56;0.80;;;0.60;;
45676;SDS011;31390;51.186;6.830;2023-04-30T05:30:23;2.10;;;1.10;;
45676;SDS011;31390;51.186;6.830;2023-04-30T05:32:50;0.80;;;0.80;;
45676;SDS011;31390;51.186;6.830;2023-04-30T05:35:18;1.00;;;0.77;;
45676;SDS011;31390;51.186;6.830;2023-04-30T05:37:44;1.40;;;0.80;;
45676;SDS011;31390;51.186;6.830;2023-04-30T05:40:11;0.87;;;0.70;;
45676;SDS011;31390;51.186;6.830;2023-04-30T05:42:38;1.07;;;0.90;;
45676;SDS011;31390;51.186;6.830;2023-04-30T05:45:06;1.10;;;0.80;;
45676;SDS011;31390;51.186;6.830;2023-04-30T05:47:33;1.40;;;0.90;;
45676;SDS011;31390;51.186;6.830;2023-04-30T05:50:00;0.60;;;0.60;;
45676;SDS011;31390;51.186;6.830;2023-04-30T05:52:26;0.50;;;0.50;;
45676;SDS011;31390;51.186;6.830;2023-04-30T05:54:53;1.07;;;0.80;;
45676;SDS011;31390;51.186;6.830;2023-04-30T05:57:19;1.20;;;0.73;;
45676;SDS011;31390;51.186;6.830;2023-04-30T05:59:46;1.10;;;0.70;;
45676;SDS011;31390;51.186;6.830;2023-04-30T06:02:12;1.02;;;0.88;;
45676;SDS011;31390;51.186;6.830;2023-04-30T06:04:39;0.70;;;0.50;;
45676;SDS011;31390;51.186;6.830;2023-04-30T06:07:05;1.10;;;0.70;;
45676;SDS011;31390;51.186;6.830;2023-04-30T06:09:32;1.50;;;0.97;;
45676;SDS011;31390;51.186;6.830;2023-04-30T06:11:58;0.85;;;0.75;;
45676;SDS011;31390;51.186;6.830;2023-04-30T06:14:25;1.45;;;0.80;;
45676;SDS011;31390;51.186;6.830;2023-04-30T06:16:51;1.20;;;0.60;;
45676;SDS011;31390;51.186;6.830;2023-04-30T06:19:19;0.52;;;0.52;;
45676;SDS011;31390;51.186;6.830;2023-04-30T06:21:46;1.05;;;0.75;;
45676;SDS011;31390;51.186;6.830;2023-04-30T06:24:12;1.13;;;0.80;;
45676;SDS011;31390;51.186;6.830;2023-04-30T06:26:39;1.08;;;0.73;;
45676;SDS011;31390;51.186;6.830;2023-04-30T06:29:05;0.82;;;0.68;;
45676;SDS011;31390;51.186;6.830;2023-04-30T06:31:32;1.02;;;0.90;;
45676;SDS011;31390;51.186;6.830;2023-04-30T06:33:58;1.00;;;0.65;;
45676;SDS011;31390;51.186;6.830;2023-04-30T06:36:25;2.03;;;1.00;;
45676;SDS011;31390;51.186;6.830;2023-04-30T06:38:51;0.60;;;0.60;;
45676;SDS011;31390;51.186;6.830;2023-04-30T06:41:18;1.10;;;0.75;;
45676;SDS011;31390;51.186;6.830;2023-04-30T06:43:44;1.27;;;1.00;;
45676;SDS011;31390;51.186;6.830;2023-04-30T06:46:11;0.85;;;0.77;;
45676;SDS011;31390;51.186;6.830;2023-04-30T06:48:38;1.27;;;0.60;;
45676;SDS011;31390;51.186;6.830;2023-04-30T06:51:04;0.95;;;0.80;;
45676;SDS011;31390;51.186;6.830;2023-04-30T06:53:31;1.40;;;1.00;;
45676;SDS011;31390;51.186;6.830;2023-04-30T06:55:57;1.40;;;1.02;;
45676;SDS011;31390;51.186;6.830;2023-04-30T06:58:24;0.80;;;0.70;;
45676;SDS011;31390;51.186;6.830;2023-04-30T07:00:51;0.75;;;0.70;;
45676;SDS011;31390;51.186;6.830;2023-04-30T07:03:17;1.25;;;1.00;;
45676;SDS011;31390;51.186;6.830;2023-04-30T07:05:44;1.13;;;0.70;;
45676;SDS011;31390;51.186;6.830;2023-04-30T07:08:10;0.98;;;0.80;;
45676;SDS011;31390;51.186;6.830;2023-04-30T07:10:38;0.90;;;0.90;;
45676;SDS011;31390;51.186;6.830;2023-04-30T07:13:05;0.73;;;0.68;;
45676;SDS011;31390;51.186;6.830;2023-04-30T07:15:33;0.47;;;0.47;;
45676;SDS011;31390;51.186;6.830;2023-04-30T07:18:00;1.25;;;1.05;;
45676;SDS011;31390;51.186;6.830;2023-04-30T07:20:27;1.25;;;1.02;;
45676;SDS011;31390;51.186;6.830;2023-04-30T07:22:53;1.13;;;0.90;;
45676;SDS011;31390;51.186;6.830;2023-04-30T07:25:20;1.98;;;1.00;;
45676;SDS011;31390;51.186;6.830;2023-04-30T07:27:47;1.35;;;0.75;;
45676;SDS011;31390;51.186;6.830;2023-04-30T07:30:13;1.05;;;0.73;;
45676;SDS011;31390;51.186;6.830;2023-04-30T07:32:40;0.85;;;0.60;;
45676;SDS011;31390;51.186;6.830;2023-04-30T07:35:07;1.45;;;0.70;;
45676;SDS011;31390;51.186;6.830;2023-04-30T07:37:33;0.85;;;0.82;;
45676;SDS011;31390;51.186;6.830;2023-04-30T07:40:01;0.80;;;0.80;;
45676;SDS011;31390;51.186;6.830;2023-04-30T07:42:28;1.92;;;1.10;;
45676;SDS011;31390;51.186;6.830;2023-04-30T07:44:55;1.15;;;0.77;;
45676;SDS011;31390;51.186;6.830;2023-04-30T07:47:21;0.77;;;0.70;;
45676;SDS011;31390;51.186;6.830;2023-04-30T07:49:48;0.90;;;0.77;;
45676;SDS011;31390;51.186;6.830;2023-04-30T07:52:15;1.27;;;0.80;;
45676;SDS011;31390;51.186;6.830;2023-04-30T07:54:41;1.83;;;0.98;;
45676;SDS011;31390;51.186;6.830;2023-04-30T07:57:08;2.33;;;1.30;;
45676;SDS011;31390;51.186;6.830;2023-04-30T07:59:37;1.20;;;0.75;;
45676;SDS011;31390;51.186;6.830;2023-04-30T08:02:03;1.25;;;0.80;;
45676;SDS011;31390;51.186;6.830;2023-04-30T08:04:30;1.50;;;0.98;;
45676;SDS011;31390;51.186;6.830;2023-04-30T08:06:57;2.55;;;1.10;;
45676;SDS011;31390;51.186;6.830;2023-04-30T08:09:24;1.17;;;0.82;;
45676;SDS011;31390;51.186;6.830;2023-04-30T08:11:50;1.50;;;1.00;;
45676;SDS011;31390;51.186;6.830;2023-04-30T08:14:19;1.17;;;0.77;;
45676;SDS011;31390;51.186;6.830;2023-04-30T08:16:45;2.00;;;0.90;;
45676;SDS011;31390;51.186;6.830;2023-04-30T08:19:12;1.27;;;1.00;;
45676;SDS011;31390;51.186;6.830;2023-04-30T08:21:39;1.25;;;0.75;;
45676;SDS011;31390;51.186;6.830;2023-04-30T08:24:05;1.02;;;0.68;;
45676;SDS011;31390;51.186;6.830;2023-04-30T08:26:32;1.08;;;0.75;;
45676;SDS011;31390;51.186;6.830;2023-04-30T08:28:58;0.93;;;0.82;;
45676;SDS011;31390;51.186;6.830;2023-04-30T08:31:25;0.63;;;0.60;;
45676;SDS011;31390;51.186;6.830;2023-04-30T08:33:51;0.70;;;0.50;;
45676;SDS011;31390;51.186;6.830;2023-04-30T08:36:18;0.60;;;0.50;;
45676;SDS011;31390;51.186;6.830;2023-04-30T08:38:45;1.00;;;0.60;;
45676;SDS011;31390;51.186;6.830;2023-04-30T08:41:12;0.80;;;0.50;;
45676;SDS011;31390;51.186;6.830;2023-04-30T08:43:39;0.45;;;0.45;;
45676;SDS011;31390;51.186;6.830;2023-04-30T08:46:06;0.77;;;0.70;;
45676;SDS011;31390;51.186;6.830;2023-04-30T08:48:33;0.52;;;0.50;;
45676;SDS011;31390;51.186;6.830;2023-04-30T08:51:00;0.65;;;0.40;;
45676;SDS011;31390;51.186;6.830;2023-04-30T08:53:28;1.75;;;0.95;;
45676;SDS011;31390;51.186;6.830;2023-04-30T08:55:55;0.35;;;0.30;;
45676;SDS011;31390;51.186;6.830;2023-04-30T08:58:21;0.20;;;0.20;;
45676;SDS011;31390;51.186;6.830;2023-04-30T09:00:48;0.32;;;0.32;;
45676;SDS011;31390;51.186;6.830;2023-04-30T09:03:14;0.40;;;0.30;;
45676;SDS011;31390;51.186;6.830;2023-04-30T09:05:41;0.30;;;0.30;;
45676;SDS011;31390;51.186;6.830;2023-04-30T09:08:08;0.05;;;0.05;;
45676;SDS011;31390;51.186;6.830;2023-04-30T09:10:34;0.20;;;0.20;;
45676;SDS011;31390;51.186;6.830;2023-04-30T09:13:02;0.13;;;0.13;;
45676;SDS011;31390;51.186;6.830;2023-04-30T09:15:29;0.25;;;0.25;;
45676;SDS011;31390;51.186;6.830;2023-04-30T09:18:10;0.20;;;0.20;;
45676;SDS011;31390;51.186;6.830;2023-04-30T09:20:37;0.10;;;0.10;;
45676;SDS011;31390;51.186;6.830;2023-04-30T09:23:18;0.17;;;0.17;;
45676;SDS011;31390;51.186;6.830;2023-04-30T09:25:45;0.00;;;0.00;;
45676;SDS011;31390;51.186;6.830;2023-04-30T09:28:12;0.30;;;0.30;;
45676;SDS011;31390;51.186;6.830;2023-04-30T09:30:39;0.05;;;0.05;;
45676;SDS011;31390;51.186;6.830;2023-04-30T09:33:06;0.52;;;0.30;;
45676;SDS011;31390;51.186;6.830;2023-04-30T09:35:37;0.35;;;0.28;;
45676;SDS011;31390;51.186;6.830;2023-04-30T09:38:04;0.20;;;0.20;;
45676;SDS011;31390;51.186;6.830;2023-04-30T09:40:34;0.43;;;0.40;;
45676;SDS011;31390;51.186;6.830;2023-04-30T09:43:01;0.50;;;0.50;;
45676;SDS011;31390;51.186;6.830;2023-04-30T09:45:38;0.30;;;0.30;;
45676;SDS011;31390;51.186;6.830;2023-04-30T09:48:05;1.33;;;0.50;;
45676;SDS011;31390;51.186;6.830;2023-04-30T09:50:42;0.52;;;0.28;;
45676;SDS011;31390;51.186;6.830;2023-04-30T09:53:10;0.93;;;0.50;;
45676;SDS011;31390;51.186;6.830;2023-04-30T09:55:43;0.50;;;0.30;;
45676;SDS011;31390;51.186;6.830;2023-04-30T09:58:10;0.52;;;0.40;;
45676;SDS011;31390;51.186;6.830;2023-04-30T10:00:37;0.30;;;0.30;;
45676;SDS011;31390;51.186;6.830;2023-04-30T10:03:06;0.28;;;0.28;;
45676;SDS011;31390;51.186;6.830;2023-04-30T10:05:37;0.52;;;0.40;;
45676;SDS011;31390;51.186;6.830;2023-04-30T10:08:05;0.38;;;0.30;;
45676;SDS011;31390;51.186;6.830;2023-04-30T10:10:32;0.30;;;0.30;;
45676;SDS011;31390;51.186;6.830;2023-04-30T10:13:00;0.35;;;0.35;;
45676;SDS011;31390;51.186;6.830;2023-04-30T10:15:35;0.55;;;0.47;;
45676;SDS011;31390;51.186;6.830;2023-04-30T10:18:05;0.30;;;0.30;;
45676;SDS011;31390;51.186;6.830;2023-04-30T10:20:34;0.20;;;0.20;;
45676;SDS011;31390;51.186;6.830;2023-04-30T10:23:04;0.38;;;0.30;;
45676;SDS011;31390;51.186;6.830;2023-04-30T10:25:32;0.25;;;0.25;;
45676;SDS011;31390;51.186;6.830;2023-04-30T10:27:59;0.30;;;0.30;;
45676;SDS011;31390;51.186;6.830;2023-04-30T10:30:28;0.40;;;0.40;;
45676;SDS011;31390;51.186;6.830;2023-04-30T10:35:27;0.40;;;0.40;;
45676;SDS011;31390;51.186;6.830;2023-04-30T10:38:01;0.32;;;0.15;;
45676;SDS011;31390;51.186;6.830;2023-04-30T10:40:34;0.15;;;0.15;;
45676;SDS011;31390;51.186;6.830;2023-04-30T10:43:00;0.30;;;0.30;;
45676;SDS011;31390;51.186;6.830;2023-04-30T10:45:37;0.10;;;0.10;;
45676;SDS011;31390;51.186;6.830;2023-04-30T10:48:04;0.10;;;0.10;;
45676;SDS011;31390;51.186;6.830;2023-04-30T10:50:31;0.00;;;0.00;;
45676;SDS011;31390;51.186;6.830;2023-04-30T10:53:02;0.13;;;0.10;;
45676;SDS011;31390;51.186;6.830;2023-04-30T10:55:29;0.10;;;0.10;;
45676;SDS011;31390;51.186;6.830;2023-04-30T10:57:56;0.15;;;0.03;;
45676;SDS011;31390;51.186;6.830;2023-04-30T11:00:27;0.10;;;0.10;;
45676;SDS011;31390;51.186;6.830;2023-04-30T11:02:55;0.10;;;0.10;;
45676;SDS011;31390;51.186;6.830;2023-04-30T11:05:32;0.65;;;0.17;;
45676;SDS011;31390;51.186;6.830;2023-04-30T11:07:59;0.10;;;0.10;;
45676;SDS011;31390;51.186;6.830;2023-04-30T11:10:27;0.10;;;0.10;;
45676;SDS011;31390;51.186;6.830;2023-04-30T11:12:54;0.10;;;0.10;;
45676;SDS011;31390;51.186;6.830;2023-04-30T11:15:24;0.20;;;0.20;;
45676;SDS011;31390;51.186;6.830;2023-04-30T11:17:51;0.10;;;0.10;;
45676;SDS011;31390;51.186;6.830;2023-04-30T11:20:24;0.10;;;0.10;;
45676;SDS011;31390;51.186;6.830;2023-04-30T11:23:06;0.20;;;0.10;;
45676;SDS011;31390;51.186;6.830;2023-04-30T11:25:43;0.05;;;0.05;;
45676;SDS011;31390;51.186;6.830;2023-04-30T11:28:12;0.22;;;0.20;;
45676;SDS011;31390;51.186;6.830;2023-04-30T11:30:40;0.10;;;0.05;;
45676;SDS011;31390;51.186;6.830;2023-04-30T11:33:06;0.10;;;0.10;;
45676;SDS011;31390;51.186;6.830;2023-04-30T11:35:34;0.10;;;0.03;;
45676;SDS011;31390;51.186;6.830;2023-04-30T11:38:01;0.15;;;0.10;;
45676;SDS011;31390;51.186;6.830;2023-04-30T11:40:29;0.10;;;0.10;;
45676;SDS011;31390;51.186;6.830;2023-04-30T11:43:00;0.00;;;0.00;;
45676;SDS011;31390;51.186;6.830;2023-04-30T11:45:26;0.32;;;0.00;;
45676;SDS011;31390;51.186;6.830;2023-04-30T11:47:53;0.68;;;0.30;;
45676;SDS011;31390;51.186;6.830;2023-04-30T11:50:21;0.00;;;0.00;;
45676;SDS011;31390;51.186;6.830;2023-04-30T11:52:54;0.08;;;0.08;;
45676;SDS011;31390;51.186;6.830;2023-04-30T11:55:22;0.10;;;0.03;;
45676;SDS011;31390;51.186;6.830;2023-04-30T11:57:49;0.00;;;0.00;;
45676;SDS011;31390;51.186;6.830;2023-04-30T12:00:17;0.00;;;0.00;;
45676;SDS011;31390;51.186;6.830;2023-04-30T12:02:45;0.00;;;0.00;;
45676;SDS011;31390;51.186;6.830;2023-04-30T12:05:16;0.28;;;0.28;;
45676;SDS011;31390;51.186;6.830;2023-04-30T12:07:47;0.00;;;0.00;;
45676;SDS011;31390;51.186;6.830;2023-04-30T12:10:13;0.00;;;0.00;;
45676;SDS011;31390;51.186;6.830;2023-04-30T12:12:43;0.15;;;0.00;;
45676;SDS011;31390;51.186;6.830;2023-04-30T12:15:16;0.00;;;0.00;;
45676;SDS011;31390;51.186;6.830;2023-04-30T12:17:44;0.80;;;0.10;;
45676;SDS011;31390;51.186;6.830;2023-04-30T12:20:12;0.03;;;0.03;;
45676;SDS011;31390;51.186;6.830;2023-04-30T12:22:40;0.10;;;0.10;;
45676;SDS011;31390;51.186;6.830;2023-04-30T12:25:07;0.00;;;0.00;;
45676;SDS011;31390;51.186;6.830;2023-04-30T12:27:35;0.00;;;0.00;;
45676;SDS011;31390;51.186;6.830;2023-04-30T12:30:06;0.00;;;0.00;;
45676;SDS011;31390;51.186;6.830;2023-04-30T12:32:40;0.10;;;0.10;;
45676;SDS011;31390;51.186;6.830;2023-04-30T12:35:07;0.00;;;0.00;;
45676;SDS011;31390;51.186;6.830;2023-04-30T12:37:34;0.80;;;0.43;;
45676;SDS011;31390;51.186;6.830;2023-04-30T12:40:01;0.00;;;0.00;;
45676;SDS011;31390;51.186;6.830;2023-04-30T12:42:31;0.10;;;0.10;;
45676;SDS011;31390;51.186;6.830;2023-04-30T12:45:01;0.30;;;0.28;;
45676;SDS011;31390;51.186;6.830;2023-04-30T12:47:28;0.00;;;0.00;;
45676;SDS011;31390;51.186;6.830;2023-04-30T12:49:54;0.00;;;0.00;;
45676;SDS011;31390;51.186;6.830;2023-04-30T12:52:22;0.00;;;0.00;;
45676;SDS011;31390;51.186;6.830;2023-04-30T12:54:49;0.10;;;0.10;;
45676;SDS011;31390;51.186;6.830;2023-04-30T12:57:16;0.00;;;0.00;;
45676;SDS011;31390;51.186;6.830;2023-04-30T13:02:15;0.40;;;0.20;;
45676;SDS011;31390;51.186;6.830;2023-04-30T13:04:42;0.00;;;0.00;;
45676;SDS011;31390;51.186;6.830;2023-04-30T13:07:08;0.00;;;0.00;;
45676;SDS011;31390;51.186;6.830;2023-04-30T13:09:35;0.00;;;0.00;;
45676;SDS011;31390;51.186;6.830;2023-04-30T13:12:02;0.00;;;0.00;;
45676;SDS011;31390;51.186;6.830;2023-04-30T13:14:32;0.00;;;0.00;;
45676;SDS011;31390;51.186;6.830;2023-04-30T13:16:59;0.00;;;0.00;;
45676;SDS011;31390;51.186;6.830;2023-04-30T13:19:26;0.20;;;0.10;;
45676;SDS011;31390;51.186;6.830;2023-04-30T13:21:53;0.00;;;0.00;;
45676;SDS011;31390;51.186;6.830;2023-04-30T13:24:19;0.05;;;0.05;;
45676;SDS011;31390;51.186;6.830;2023-04-30T13:26:46;0.00;;;0.00;;
45676;SDS011;31390;51.186;6.830;2023-04-30T13:29:13;0.00;;;0.00;;
45676;SDS011;31390;51.186;6.830;2023-04-30T13:31:39;0.00;;;0.00;;
45676;SDS011;31390;51.186;6.830;2023-04-30T13:34:08;0.00;;;0.00;;
45676;SDS011;31390;51.186;6.830;2023-04-30T13:36:35;0.22;;;0.20;;
45676;SDS011;31390;51.186;6.830;2023-04-30T13:39:01;0.00;;;0.00;;
45676;SDS011;31390;51.186;6.830;2023-04-30T13:41:29;0.00;;;0.00;;
45676;SDS011;31390;51.186;6.830;2023-04-30T13:43:56;0.03;;;0.03;;
45676;SDS011;31390;51.186;6.830;2023-04-30T13:46:22;0.00;;;0.00;;
45676;SDS011;31390;51.186;6.830;2023-04-30T13:48:49;0.00;;;0.00;;
45676;SDS011;31390;51.186;6.830;2023-04-30T13:51:18;0.00;;;0.00;;
45676;SDS011;31390;51.186;6.830;2023-04-30T13:53:45;0.10;;;0.00;;
45676;SDS011;31390;51.186;6.830;2023-04-30T13:56:11;0.13;;;0.08;;
45676;SDS011;31390;51.186;6.830;2023-04-30T13:58:38;0.03;;;0.03;;
45676;SDS011;31390;51.186;6.830;2023-04-30T14:01:05;0.00;;;0.00;;
45676;SDS011;31390;51.186;6.830;2023-04-30T14:03:31;0.52;;;0.00;;
45676;SDS011;31390;51.186;6.830;2023-04-30T14:05:59;0.30;;;0.20;;
45676;SDS011;31390;51.186;6.830;2023-04-30T14:08:25;0.15;;;0.15;;
45676;SDS011;31390;51.186;6.830;2023-04-30T14:10:52;0.00;;;0.00;;
45676;SDS011;31390;51.186;6.830;2023-04-30T14:13:18;0.05;;;0.00;;
45676;SDS011;31390;51.186;6.830;2023-04-30T14:15:45;0.10;;;0.10;;
45676;SDS011;31390;51.186;6.830;2023-04-30T14:18:13;0.00;;;0.00;;
45676;SDS011;31390;51.186;6.830;2023-04-30T14:20:39;0.00;;;0.00;;
45676;SDS011;31390;51.186;6.830;2023-04-30T14:23:06;0.00;;;0.00;;
45676;SDS011;31390;51.186;6.830;2023-04-30T14:25:33;0.00;;;0.00;;
45676;SDS011;31390;51.186;6.830;2023-04-30T14:28:00;0.00;;;0.00;;
45676;SDS011;31390;51.186;6.830;2023-04-30T14:30:26;0.00;;;0.00;;
45676;SDS011;31390;51.186;6.830;2023-04-30T14:32:53;0.00;;;0.00;;
45676;SDS011;31390;51.186;6.830;2023-04-30T14:35:21;0.15;;;0.08;;
45676;SDS011;31390;51.186;6.830;2023-04-30T14:37:48;0.10;;;0.10;;
45676;SDS011;31390;51.186;6.830;2023-04-30T14:40:14;0.00;;;0.00;;
45676;SDS011;31390;51.186;6.830;2023-04-30T14:42:40;0.00;;;0.00;;
45676;SDS011;31390;51.186;6.830;2023-04-30T14:45:08;0.00;;;0.00;;
45676;SDS011;31390;51.186;6.830;2023-04-30T14:47:34;0.00;;;0.00;;
45676;SDS011;31390;51.186;6.830;2023-04-30T14:50:01;0.10;;;0.10;;
45676;SDS011;31390;51.186;6.830;2023-04-30T14:52:28;0.00;;;0.00;;
45676;SDS011;31390;51.186;6.830;2023-04-30T14:54:54;0.00;;;0.00;;
45676;SDS011;31390;51.186;6.830;2023-04-30T14:57:21;0.10;;;0.10;;
45676;SDS011;31390;51.186;6.830;2023-04-30T14:59:48;0.08;;;0.08;;
45676;SDS011;31390;51.186;6.830;2023-04-30T15:02:15;0.00;;;0.00;;
45676;SDS011;31390;51.186;6.830;2023-04-30T15:04:42;0.00;;;0.00;;
45676;SDS011;31390;51.186;6.830;2023-04-30T15:07:11;0.00;;;0.00;;
45676;SDS011;31390;51.186;6.830;2023-04-30T15:09:38;0.00;;;0.00;;